Time;durP1;ratioP1;P1;durP2;ratioP2;P2;SDS_P1;SDS_P2;PMS_P1;PMS_P2;Temp;Humidity;BMP_temperature;BMP_pressure;BME280_temperature;BME280_humidity;BME280_pressure;Samples;Min_cycle;Max_cycle;Signal;HPM_P1;HPM_P2
2022/12/25 00:06:48;;;;;;;11.43;10.27;;;;;12.60;99040.00;;;;16707698;28;20225;-48
2022/12/25 00:14:50;;;;;;;11.50;10.40;;;;;12.60;99041.00;;;;16709277;28;20733;-48
2022/12/25 00:22:54;;;;;;;12.23;10.93;;;;;12.50;99042.00;;;;16708476;28;20237;-48
2022/12/25 00:30:57;;;;;;;10.90;9.80;;;;;12.80;99037.00;;;;16707017;28;20238;-48
2022/12/25 00:39:00;;;;;;;11.93;9.80;;;;;12.90;99025.00;;;;16711612;28;20230;-48
2022/12/25 00:47:03;;;;;;;8.97;6.13;;;;;12.00;99039.00;;;;16702216;28;20784;-49
2022/12/25 00:55:07;;;;;;;10.93;8.90;;;;;11.80;99051.00;;;;16706925;28;20222;-48
2022/12/25 01:03:10;;;;;;;8.30;7.50;;;;;12.40;99048.00;;;;16704564;28;20812;-48
2022/12/25 01:11:13;;;;;;;5.97;5.37;;;;;12.60;99033.00;;;;16708266;28;20212;-48
2022/12/25 01:19:16;;;;;;;10.67;7.17;;;;;12.80;99030.00;;;;16712732;28;20651;-48
2022/12/25 01:27:19;;;;;;;7.87;7.07;;;;;13.10;99044.00;;;;16702137;28;20217;-48
2022/12/25 01:35:22;;;;;;;7.40;6.70;;;;;12.30;99057.00;;;;16700687;28;20690;-48
2022/12/25 01:43:28;;;;;;;6.60;6.00;;;;;11.60;99068.00;;;;16708465;28;20858;-49
2022/12/25 01:51:33;;;;;;;8.77;7.50;;;;;11.40;99085.00;;;;16713530;28;20227;-48
2022/12/25 01:59:37;;;;;;;8.67;6.97;;;;;11.40;99084.00;;;;16702998;28;20235;-48
2022/12/25 02:07:40;;;;;;;10.33;8.10;;;;;12.20;99072.00;;;;16703166;28;20223;-48
2022/12/25 02:16:01;;;;;;;8.37;7.57;;;;;12.70;99056.00;;;;16706336;28;20272;-48
2022/12/25 02:24:37;;;;;;;8.67;7.23;;;;;12.50;99060.00;;;;16700107;28;20222;-48
2022/12/25 02:32:47;;;;;;;7.77;6.97;;;;;12.50;99044.00;;;;16702958;28;20244;-48
2022/12/25 02:40:53;;;;;;;8.20;7.20;;;;;12.60;99041.00;;;;16702950;28;20208;-48
2022/12/25 03:31:11;;;;;;;2.77;2.57;;;;;13.00;99012.00;;;;16627757;28;20236;-50
2022/12/25 04:37:48;;;;;;;6.57;5.77;;;;;11.70;98972.00;;;;16596047;28;20219;-50
2022/12/25 04:45:54;;;;;;;5.50;5.00;;;;;12.00;98976.00;;;;16598154;28;20200;-50
2022/12/25 04:53:57;;;;;;;8.40;6.00;;;;;12.00;98988.00;;;;16600911;28;20274;-50
2022/12/25 05:02:01;;;;;;;5.70;5.13;;;;;12.10;98973.00;;;;16614810;28;20226;-50
2022/12/25 05:10:03;;;;;;;5.90;5.40;;;;;12.40;98962.00;;;;16636749;28;20234;-48
2022/12/25 05:18:07;;;;;;;9.17;4.87;;;;;11.70;98945.00;;;;16626585;28;20249;-49
2022/12/25 05:26:10;;;;;;;5.43;4.97;;;;;12.00;98957.00;;;;16611186;28;20281;-49
2022/12/25 05:34:14;;;;;;;6.00;5.50;;;;;12.00;98950.00;;;;16606949;28;20227;-49
2022/12/25 05:42:16;;;;;;;6.03;5.50;;;;;11.50;98958.00;;;;16596063;28;20285;-49
2022/12/25 05:50:20;;;;;;;5.60;5.20;;;;;11.70;98940.00;;;;16602772;28;20804;-48
2022/12/25 05:58:23;;;;;;;6.00;5.40;;;;;11.60;98922.00;;;;16617636;28;20584;-50
2022/12/25 06:06:27;;;;;;;8.20;7.40;;;;;11.20;98927.00;;;;16624443;28;20192;-48
2022/12/25 06:14:29;;;;;;;6.10;5.50;;;;;11.90;98919.00;;;;16635513;28;20233;-48
2022/12/25 06:22:34;;;;;;;8.07;5.80;;;;;11.40;98919.00;;;;16630743;28;20218;-50
2022/12/25 06:30:36;;;;;;;8.63;5.80;;;;;11.50;98906.00;;;;16638099;28;20223;-49
2022/12/25 06:38:40;;;;;;;8.80;5.93;;;;;11.40;98914.00;;;;16653050;28;20715;-50
2022/12/25 06:46:43;;;;;;;6.67;6.00;;;;;12.10;98896.00;;;;16661004;28;20199;-48
2022/12/25 06:54:47;;;;;;;6.13;5.53;;;;;11.40;98915.00;;;;16656709;28;20588;-49
2022/12/25 07:02:50;;;;;;;8.70;5.70;;;;;11.40;98922.00;;;;16654036;28;20230;-49
2022/12/25 07:10:54;;;;;;;6.63;6.03;;;;;11.50;98913.00;;;;16653014;28;20723;-48
2022/12/25 07:18:58;;;;;;;8.90;8.10;;;;;11.90;98922.00;;;;16647290;28;20637;-48
2022/12/25 07:27:02;;;;;;;6.80;6.10;;;;;12.40;98920.00;;;;16636580;28;20213;-50
2022/12/25 07:35:05;;;;;;;6.87;5.40;;;;;12.80;98905.00;;;;16640918;28;20305;-48
2022/12/25 07:43:09;;;;;;;8.17;7.43;;;;;13.10;98885.00;;;;16633376;28;20244;-50
2022/12/25 07:51:13;;;;;;;9.07;8.27;;;;;12.80;98869.00;;;;16634194;28;20228;-49
2022/12/25 07:59:17;;;;;;;9.00;7.93;;;;;12.50;98847.00;;;;16634746;28;20240;-49
2022/12/25 08:07:19;;;;;;;6.43;5.80;;;;;12.60;98849.00;;;;16624336;28;20223;-49
2022/12/25 08:15:23;;;;;;;7.23;6.53;;;;;12.60;98865.00;;;;16636756;28;20256;-49
2022/12/25 08:23:25;;;;;;;8.97;7.17;;;;;13.50;98877.00;;;;16620768;28;20214;-50
2022/12/25 08:31:32;;;;;;;7.53;6.83;;;;;13.40;98880.00;;;;16623646;28;20696;-50
2022/12/25 08:39:34;;;;;;;8.27;7.53;;;;;13.80;98880.00;;;;16628096;28;20209;-49
2022/12/25 08:47:38;;;;;;;6.60;6.10;;;;;15.00;98889.00;;;;16634172;28;20862;-50
2022/12/25 08:55:40;;;;;;;6.37;5.77;;;;;14.20;98875.00;;;;16633361;28;20737;-49
2022/12/25 09:03:44;;;;;;;6.60;6.10;;;;;14.40;98865.00;;;;16619908;28;20283;-50
2022/12/25 09:11:48;;;;;;;12.47;6.83;;;;;14.90;98819.00;;;;16635466;28;20589;-49
2022/12/25 09:19:52;;;;;;;8.93;6.40;;;;;15.00;98806.00;;;;16638127;28;20718;-49
2022/12/25 09:27:56;;;;;;;7.43;6.07;;;;;15.20;98825.00;;;;16635836;28;20218;-50
2022/12/25 09:36:01;;;;;;;6.97;5.27;;;;;15.50;98830.00;;;;16600732;28;20223;-49
2022/12/25 09:44:08;;;;;;;8.27;6.90;;;;;14.40;98841.00;;;;16604755;28;20233;-50
2022/12/25 09:52:15;;;;;;;5.10;4.70;;;;;13.50;98848.00;;;;16619961;28;20832;-49
2022/12/25 10:00:19;;;;;;;6.37;5.00;;;;;13.80;98848.00;;;;16630839;28;20229;-50
2022/12/25 10:08:35;;;;;;;4.73;4.23;;;;;14.20;98846.00;;;;16631075;28;20218;-49
2022/12/25 10:16:43;;;;;;;4.47;4.07;;;;;16.30;98823.00;;;;16629336;28;20232;-49
2022/12/25 10:24:49;;;;;;;3.57;3.33;;;;;17.60;98803.00;;;;16631268;28;20223;-49
2022/12/25 10:32:52;;;;;;;4.23;3.80;;;;;17.80;98794.00;;;;16612158;28;20222;-49
2022/12/25 10:41:11;;;;;;;4.50;4.10;;;;;17.10;98770.00;;;;16598872;28;20222;-49
2022/12/25 10:49:16;;;;;;;3.77;3.40;;;;;17.00;98748.00;;;;16613772;28;20337;-49
2022/12/25 10:57:21;;;;;;;4.80;4.40;;;;;17.20;98737.00;;;;16607340;28;20227;-49
2022/12/25 11:05:27;;;;;;;4.50;4.10;;;;;16.80;98733.00;;;;16603695;28;20207;-49
2022/12/25 11:13:32;;;;;;;4.00;3.67;;;;;16.80;98729.00;;;;16623707;28;20638;-49
2022/12/25 11:21:37;;;;;;;4.70;4.30;;;;;17.10;98723.00;;;;16635435;28;20227;-49
2022/12/25 11:29:45;;;;;;;4.60;4.20;;;;;17.80;98720.00;;;;16638962;28;20214;-49
2022/12/25 11:37:49;;;;;;;5.13;4.73;;;;;17.50;98704.00;;;;16635686;28;20622;-50
2022/12/25 11:45:56;;;;;;;5.77;4.80;;;;;17.80;98701.00;;;;16610909;28;20677;-50
2022/12/25 11:54:02;;;;;;;5.10;4.13;;;;;18.00;98680.00;;;;16628261;28;20226;-47
2022/12/25 12:02:25;;;;;;;4.73;4.40;;;;;17.70;98678.00;;;;16610522;28;20259;-49
2022/12/25 12:10:51;;;;;;;4.00;3.70;;;;;18.60;98649.00;;;;16619476;28;20223;-48
2022/12/25 12:18:55;;;;;;;4.50;4.10;;;;;19.20;98628.00;;;;16614108;28;20310;-50
2022/12/25 12:27:02;;;;;;;5.07;4.57;;;;;19.10;98609.00;;;;16596702;28;20210;-50
2022/12/25 12:35:16;;;;;;;4.30;3.70;;;;;19.90;98606.00;;;;16610706;28;20708;-50
2022/12/25 12:43:32;;;;;;;5.93;3.77;;;;;19.70;98607.00;;;;16614101;28;20225;-48
2022/12/25 12:51:39;;;;;;;5.13;4.30;;;;;20.30;98614.00;;;;16601143;28;20231;-49
2022/12/25 12:59:43;;;;;;;5.60;4.10;;;;;20.50;98605.00;;;;16615336;28;20720;-49
2022/12/25 13:07:56;;;;;;;5.40;3.80;;;;;21.00;98603.00;;;;16598357;28;20254;-48
2022/12/25 13:15:58;;;;;;;4.60;3.90;;;;;21.10;98591.00;;;;16606894;28;20231;-51
2022/12/25 13:24:06;;;;;;;4.67;3.63;;;;;21.30;98575.00;;;;16598925;28;20227;-50
2022/12/25 13:32:19;;;;;;;4.30;3.90;;;;;21.30;98595.00;;;;16596610;28;20246;-50
2022/12/25 13:40:25;;;;;;;5.27;4.87;;;;;20.70;98604.00;;;;16600160;28;20305;-49
2022/12/25 13:48:28;;;;;;;6.30;4.60;;;;;20.40;98589.00;;;;16613513;28;20231;-51
2022/12/25 13:56:33;;;;;;;4.83;4.40;;;;;19.70;98599.00;;;;16612784;28;20223;-50
2022/12/25 14:04:44;;;;;;;7.27;4.73;;;;;19.50;98597.00;;;;16602523;28;20235;-49
2022/12/25 14:12:49;;;;;;;7.40;4.03;;;;;19.00;98588.00;;;;16612384;28;20229;-49
2022/12/25 14:20:58;;;;;;;6.73;5.10;;;;;18.90;98599.00;;;;16608004;28;20231;-48
2022/12/25 14:29:08;;;;;;;13.67;11.47;;;;;18.50;98600.00;;;;16594915;28;20242;-49
2022/12/25 14:37:16;;;;;;;7.47;6.70;;;;;18.30;98590.00;;;;16599060;28;20558;-49
2022/12/25 14:45:29;;;;;;;4.43;4.03;;;;;16.10;98606.00;;;;16615824;28;20211;-50
2022/12/25 14:53:36;;;;;;;5.33;4.20;;;;;14.70;98622.00;;;;16617346;28;20219;-49
2022/12/25 15:01:40;;;;;;;12.57;11.27;;;;;14.40;98624.00;;;;16620608;28;20235;-49
2022/12/25 15:09:43;;;;;;;18.17;10.70;;;;;14.60;98623.00;;;;16604102;28;20227;-48
2022/12/25 15:17:48;;;;;;;8.93;7.33;;;;;14.50;98632.00;;;;16617340;28;20305;-47
2022/12/25 15:25:51;;;;;;;37.10;25.70;;;;;14.50;98633.00;;;;16602657;28;20207;-51
2022/12/25 15:33:56;;;;;;;14.30;9.50;;;;;14.00;98648.00;;;;16622314;28;20716;-49
2022/12/25 15:42:11;;;;;;;10.33;8.50;;;;;13.70;98648.00;;;;16605723;28;20225;-47
2022/12/25 15:50:15;;;;;;;9.03;7.53;;;;;13.60;98626.00;;;;16630470;28;20786;-50
2022/12/25 15:58:18;;;;;;;8.17;5.87;;;;;13.60;98643.00;;;;16633924;28;20813;-47
2022/12/25 16:06:22;;;;;;;7.37;5.30;;;;;13.50;98656.00;;;;16638075;28;20249;-48
2022/12/25 16:14:24;;;;;;;7.70;6.90;;;;;13.30;98665.00;;;;16641633;28;20693;-50
2022/12/25 16:22:28;;;;;;;5.33;4.80;;;;;13.30;98670.00;;;;16632839;28;20726;-48
2022/12/25 16:30:31;;;;;;;5.87;5.30;;;;;13.10;98681.00;;;;16616807;28;20241;-48
2022/12/25 16:38:35;;;;;;;7.73;7.03;;;;;13.00;98679.00;;;;16614871;28;20302;-48
2022/12/25 16:46:38;;;;;;;8.90;7.20;;;;;13.40;98667.00;;;;16630867;28;20199;-48
2022/12/25 16:54:42;;;;;;;13.27;8.83;;;;;13.00;98695.00;;;;16629039;28;20318;-49
2022/12/25 17:02:44;;;;;;;11.40;8.80;;;;;13.00;98708.00;;;;16636162;28;20231;-49
2022/12/25 17:10:48;;;;;;;22.43;19.77;;;;;13.60;98681.00;;;;16633087;28;20305;-46
2022/12/25 17:18:54;;;;;;;6.63;5.40;;;;;12.70;98674.00;;;;16631884;28;20238;-48
2022/12/25 17:26:57;;;;;;;9.00;8.10;;;;;12.90;98688.00;;;;16623353;28;20214;-48
2022/12/25 17:35:00;;;;;;;6.23;5.67;;;;;13.20;98691.00;;;;16619740;28;20257;-48
2022/12/25 17:43:04;;;;;;;6.80;5.80;;;;;13.50;98689.00;;;;16617962;28;20226;-48
2022/12/25 17:51:08;;;;;;;4.77;4.27;;;;;13.10;98704.00;;;;16631255;28;20222;-48
2022/12/25 17:59:17;;;;;;;8.60;6.07;;;;;13.50;98707.00;;;;16618030;28;20611;-48
2022/12/25 18:07:19;;;;;;;18.37;13.20;;;;;13.90;98701.00;;;;16633960;28;20307;-48
2022/12/25 18:15:23;;;;;;;5.80;4.87;;;;;13.70;98711.00;;;;16628082;28;20311;-47
2022/12/25 18:23:26;;;;;;;6.03;5.43;;;;;12.70;98740.00;;;;16653365;28;20624;-48
2022/12/25 18:31:29;;;;;;;9.93;8.90;;;;;12.30;98745.00;;;;16650170;28;20224;-48
2022/12/25 18:39:33;;;;;;;6.80;5.50;;;;;12.20;98746.00;;;;16654894;28;20226;-48
2022/12/25 18:47:36;;;;;;;9.23;7.37;;;;;12.70;98737.00;;;;16651460;28;20368;-48
2022/12/25 18:55:41;;;;;;;4.67;4.27;;;;;12.10;98741.00;;;;16646309;28;20216;-49
2022/12/25 19:03:47;;;;;;;9.63;8.10;;;;;13.20;98740.00;;;;16655197;28;20369;-48
2022/12/25 19:11:50;;;;;;;5.40;3.80;;;;;12.50;98757.00;;;;16653458;28;20702;-48
2022/12/25 19:19:54;;;;;;;6.57;5.97;;;;;13.10;98743.00;;;;16659903;28;20911;-47
2022/12/25 19:27:56;;;;;;;4.70;3.93;;;;;14.10;98738.00;;;;16634388;28;20223;-48
2022/12/25 19:36:01;;;;;;;5.00;4.50;;;;;14.10;98736.00;;;;16643809;28;20226;-48
2022/12/25 19:44:05;;;;;;;5.37;4.40;;;;;13.60;98734.00;;;;16635969;28;20222;-47
2022/12/25 19:52:09;;;;;;;3.30;3.10;;;;;13.80;98732.00;;;;16638118;28;20262;-48
2022/12/25 20:00:11;;;;;;;4.43;4.00;;;;;13.90;98754.00;;;;16639639;28;20586;-47
2022/12/25 20:08:18;;;;;;;3.17;2.97;;;;;14.70;98749.00;;;;16638078;28;20703;-48
2022/12/25 20:16:21;;;;;;;3.20;2.70;;;;;15.20;98749.00;;;;16645927;28;20214;-48
2022/12/25 20:24:25;;;;;;;7.27;5.87;;;;;14.70;98755.00;;;;16634417;28;20227;-46
2022/12/25 20:32:28;;;;;;;4.37;2.93;;;;;13.50;98757.00;;;;16633360;28;20272;-48
2022/12/25 20:40:32;;;;;;;11.80;9.00;;;;;13.90;98753.00;;;;16640070;28;20656;-48
2022/12/25 20:48:35;;;;;;;21.97;14.17;;;;;13.80;98757.00;;;;16633106;28;20314;-48
2022/12/25 20:56:40;;;;;;;8.40;6.83;;;;;14.50;98769.00;;;;16604621;28;20238;-48
2022/12/25 21:04:43;;;;;;;4.33;3.30;;;;;14.90;98760.00;;;;16637399;28;20223;-48
2022/12/25 21:12:46;;;;;;;3.47;3.17;;;;;15.30;98760.00;;;;16623769;28;20241;-48
2022/12/25 21:20:51;;;;;;;3.67;3.30;;;;;15.40;98754.00;;;;16628093;28;20250;-47
2022/12/25 21:28:58;;;;;;;3.93;2.60;;;;;15.50;98763.00;;;;16630864;28;20592;-49
2022/12/25 21:37:01;;;;;;;3.73;3.43;;;;;15.60;98750.00;;;;16626510;28;20832;-49
2022/12/25 21:45:05;;;;;;;3.83;2.93;;;;;15.60;98748.00;;;;16632863;28;20217;-49
2022/12/25 21:53:08;;;;;;;3.03;2.73;;;;;15.50;98765.00;;;;16640733;28;20253;-49
2022/12/25 22:01:15;;;;;;;3.43;3.13;;;;;15.60;98775.00;;;;16638971;28;20722;-48
2022/12/25 22:09:17;;;;;;;3.60;3.30;;;;;15.50;98786.00;;;;16641161;28;20265;-47
2022/12/25 22:25:42;;;;;;;4.10;3.80;;;;;15.20;98794.00;;;;16619603;28;20263;-48
2022/12/25 22:33:46;;;;;;;4.60;3.27;;;;;15.20;98809.00;;;;16638709;28;20222;-46
2022/12/25 22:41:49;;;;;;;4.47;3.07;;;;;15.20;98799.00;;;;16638559;28;20221;-48
2022/12/25 22:49:53;;;;;;;3.10;2.80;;;;;15.00;98798.00;;;;16639645;28;20225;-47
2022/12/25 22:57:55;;;;;;;3.60;3.30;;;;;14.90;98822.00;;;;16637610;28;20227;-48
2022/12/25 23:05:59;;;;;;;4.90;3.37;;;;;14.80;98824.00;;;;16645037;28;20850;-46
2022/12/25 23:30:42;;;;;;;3.63;3.30;;;;;14.40;98859.00;;;;16648162;28;20582;-47
2022/12/25 23:38:46;;;;;;;3.90;3.40;;;;;14.40;98874.00;;;;16607753;28;20708;-48
2022/12/25 23:46:49;;;;;;;3.97;3.67;;;;;14.30;98877.00;;;;16616019;28;20578;-46
2022/12/25 23:54:53;;;;;;;3.23;2.93;;;;;14.40;98881.00;;;;16635247;28;20265;-47
